sensor_id;sensor_type;location;lat;lon;timestamp;P1;durP1;ratioP1;P2;durP2;ratioP2
5257;SDS011;2651;51.594;9.928;2022-12-07T00:00:02;18.23;;;11.40;;
5257;SDS011;2651;51.594;9.928;2022-12-07T00:01:11;16.45;;;11.00;;
5257;SDS011;2651;51.594;9.928;2022-12-07T00:02:14;15.95;;;11.23;;
5257;SDS011;2651;51.594;9.928;2022-12-07T00:03:16;14.55;;;10.77;;
5257;SDS011;2651;51.594;9.928;2022-12-07T00:04:18;20.52;;;11.27;;
5257;SDS011;2651;51.594;9.928;2022-12-07T00:05:20;17.65;;;11.40;;
5257;SDS011;2651;51.594;9.928;2022-12-07T00:06:21;14.57;;;10.20;;
5257;SDS011;2651;51.594;9.928;2022-12-07T00:07:23;17.08;;;10.70;;
5257;SDS011;2651;51.594;9.928;2022-12-07T00:08:28;14.95;;;10.57;;
5257;SDS011;2651;51.594;9.928;2022-12-07T00:09:30;18.98;;;12.15;;
5257;SDS011;2651;51.594;9.928;2022-12-07T00:10:35;14.73;;;10.52;;
5257;SDS011;2651;51.594;9.928;2022-12-07T00:11:36;18.92;;;11.85;;
5257;SDS011;2651;51.594;9.928;2022-12-07T00:12:38;16.52;;;11.75;;
5257;SDS011;2651;51.594;9.928;2022-12-07T00:13:40;16.60;;;11.25;;
5257;SDS011;2651;51.594;9.928;2022-12-07T00:14:42;15.05;;;10.27;;
5257;SDS011;2651;51.594;9.928;2022-12-07T00:15:44;16.85;;;10.45;;
5257;SDS011;2651;51.594;9.928;2022-12-07T00:16:46;18.13;;;11.10;;
5257;SDS011;2651;51.594;9.928;2022-12-07T00:17:53;19.70;;;11.93;;
5257;SDS011;2651;51.594;9.928;2022-12-07T00:18:54;17.42;;;11.32;;
5257;SDS011;2651;51.594;9.928;2022-12-07T00:19:56;17.00;;;10.93;;
5257;SDS011;2651;51.594;9.928;2022-12-07T00:20:59;17.75;;;10.65;;
5257;SDS011;2651;51.594;9.928;2022-12-07T00:22:05;17.27;;;11.35;;
5257;SDS011;2651;51.594;9.928;2022-12-07T00:23:07;19.95;;;9.70;;
5257;SDS011;2651;51.594;9.928;2022-12-07T00:24:09;16.08;;;11.13;;
5257;SDS011;2651;51.594;9.928;2022-12-07T00:25:11;17.10;;;11.43;;
5257;SDS011;2651;51.594;9.928;2022-12-07T00:27:22;17.02;;;11.00;;
5257;SDS011;2651;51.594;9.928;2022-12-07T00:28:23;20.90;;;11.52;;
5257;SDS011;2651;51.594;9.928;2022-12-07T00:29:25;19.52;;;12.10;;
5257;SDS011;2651;51.594;9.928;2022-12-07T00:30:27;16.77;;;11.43;;
5257;SDS011;2651;51.594;9.928;2022-12-07T00:31:30;13.02;;;9.27;;
5257;SDS011;2651;51.594;9.928;2022-12-07T00:32:34;17.50;;;11.52;;
5257;SDS011;2651;51.594;9.928;2022-12-07T00:33:36;17.42;;;11.98;;
5257;SDS011;2651;51.594;9.928;2022-12-07T00:34:39;16.02;;;11.35;;
5257;SDS011;2651;51.594;9.928;2022-12-07T00:35:40;20.05;;;11.75;;
5257;SDS011;2651;51.594;9.928;2022-12-07T00:36:42;18.75;;;10.73;;
5257;SDS011;2651;51.594;9.928;2022-12-07T00:37:44;17.30;;;11.25;;
5257;SDS011;2651;51.594;9.928;2022-12-07T00:38:45;17.52;;;10.80;;
5257;SDS011;2651;51.594;9.928;2022-12-07T00:39:47;18.80;;;11.55;;
5257;SDS011;2651;51.594;9.928;2022-12-07T00:40:58;17.20;;;11.75;;
5257;SDS011;2651;51.594;9.928;2022-12-07T00:42:02;21.27;;;11.30;;
5257;SDS011;2651;51.594;9.928;2022-12-07T00:43:03;25.77;;;11.63;;
5257;SDS011;2651;51.594;9.928;2022-12-07T00:44:05;17.95;;;11.48;;
5257;SDS011;2651;51.594;9.928;2022-12-07T00:45:07;16.92;;;10.88;;
5257;SDS011;2651;51.594;9.928;2022-12-07T00:46:09;19.63;;;11.63;;
5257;SDS011;2651;51.594;9.928;2022-12-07T00:47:12;17.92;;;11.15;;
5257;SDS011;2651;51.594;9.928;2022-12-07T00:48:13;18.13;;;11.52;;
5257;SDS011;2651;51.594;9.928;2022-12-07T00:49:15;15.02;;;10.48;;
5257;SDS011;2651;51.594;9.928;2022-12-07T00:50:16;18.50;;;11.98;;
5257;SDS011;2651;51.594;9.928;2022-12-07T00:51:19;18.55;;;11.52;;
5257;SDS011;2651;51.594;9.928;2022-12-07T00:52:22;18.70;;;12.10;;
5257;SDS011;2651;51.594;9.928;2022-12-07T00:53:24;16.48;;;11.27;;
5257;SDS011;2651;51.594;9.928;2022-12-07T00:54:26;17.75;;;9.88;;
5257;SDS011;2651;51.594;9.928;2022-12-07T00:55:27;15.55;;;10.23;;
5257;SDS011;2651;51.594;9.928;2022-12-07T00:56:29;16.30;;;10.98;;
5257;SDS011;2651;51.594;9.928;2022-12-07T00:57:31;15.95;;;11.13;;
5257;SDS011;2651;51.594;9.928;2022-12-07T00:58:32;16.20;;;11.05;;
5257;SDS011;2651;51.594;9.928;2022-12-07T00:59:34;18.90;;;11.70;;
5257;SDS011;2651;51.594;9.928;2022-12-07T01:00:36;17.92;;;11.48;;
5257;SDS011;2651;51.594;9.928;2022-12-07T01:01:39;16.70;;;12.50;;
5257;SDS011;2651;51.594;9.928;2022-12-07T01:02:41;16.70;;;10.80;;
5257;SDS011;2651;51.594;9.928;2022-12-07T01:03:42;20.85;;;11.50;;
5257;SDS011;2651;51.594;9.928;2022-12-07T01:04:44;14.68;;;9.75;;
5257;SDS011;2651;51.594;9.928;2022-12-07T01:05:53;16.58;;;11.70;;
5257;SDS011;2651;51.594;9.928;2022-12-07T01:06:56;15.60;;;9.38;;
5257;SDS011;2651;51.594;9.928;2022-12-07T01:07:57;19.00;;;11.15;;
5257;SDS011;2651;51.594;9.928;2022-12-07T01:08:59;20.40;;;11.30;;
5257;SDS011;2651;51.594;9.928;2022-12-07T01:10:02;16.73;;;11.40;;
5257;SDS011;2651;51.594;9.928;2022-12-07T01:11:05;15.50;;;10.50;;
5257;SDS011;2651;51.594;9.928;2022-12-07T01:12:08;15.68;;;10.38;;
5257;SDS011;2651;51.594;9.928;2022-12-07T01:13:10;17.27;;;11.13;;
5257;SDS011;2651;51.594;9.928;2022-12-07T01:14:11;18.15;;;10.52;;
5257;SDS011;2651;51.594;9.928;2022-12-07T01:15:13;14.45;;;10.20;;
5257;SDS011;2651;51.594;9.928;2022-12-07T01:16:15;14.88;;;10.13;;
5257;SDS011;2651;51.594;9.928;2022-12-07T01:17:18;16.55;;;10.05;;
5257;SDS011;2651;51.594;9.928;2022-12-07T01:18:20;17.73;;;10.57;;
5257;SDS011;2651;51.594;9.928;2022-12-07T01:19:21;18.55;;;11.27;;
5257;SDS011;2651;51.594;9.928;2022-12-07T01:20:23;14.85;;;10.75;;
5257;SDS011;2651;51.594;9.928;2022-12-07T01:21:25;16.23;;;10.65;;
5257;SDS011;2651;51.594;9.928;2022-12-07T01:22:29;18.67;;;10.55;;
5257;SDS011;2651;51.594;9.928;2022-12-07T01:23:31;15.38;;;10.43;;
5257;SDS011;2651;51.594;9.928;2022-12-07T01:24:33;16.75;;;11.43;;
5257;SDS011;2651;51.594;9.928;2022-12-07T01:25:35;18.85;;;11.65;;
5257;SDS011;2651;51.594;9.928;2022-12-07T01:26:37;16.30;;;10.38;;
5257;SDS011;2651;51.594;9.928;2022-12-07T01:27:39;13.65;;;10.43;;
5257;SDS011;2651;51.594;9.928;2022-12-07T01:28:40;18.95;;;11.00;;
5257;SDS011;2651;51.594;9.928;2022-12-07T01:29:42;15.95;;;10.43;;
5257;SDS011;2651;51.594;9.928;2022-12-07T01:30:44;15.23;;;10.18;;
5257;SDS011;2651;51.594;9.928;2022-12-07T01:31:48;14.63;;;10.25;;
5257;SDS011;2651;51.594;9.928;2022-12-07T01:32:50;15.77;;;10.57;;
5257;SDS011;2651;51.594;9.928;2022-12-07T01:33:53;15.20;;;10.02;;
5257;SDS011;2651;51.594;9.928;2022-12-07T01:34:56;14.65;;;10.38;;
5257;SDS011;2651;51.594;9.928;2022-12-07T01:36:01;15.85;;;10.07;;
5257;SDS011;2651;51.594;9.928;2022-12-07T01:37:08;15.68;;;10.43;;
5257;SDS011;2651;51.594;9.928;2022-12-07T01:38:09;13.80;;;9.45;;
5257;SDS011;2651;51.594;9.928;2022-12-07T01:39:11;17.70;;;10.93;;
5257;SDS011;2651;51.594;9.928;2022-12-07T01:40:13;13.48;;;9.63;;
5257;SDS011;2651;51.594;9.928;2022-12-07T01:41:14;20.60;;;10.55;;
5257;SDS011;2651;51.594;9.928;2022-12-07T01:42:16;16.42;;;10.23;;
5257;SDS011;2651;51.594;9.928;2022-12-07T01:43:19;14.45;;;10.38;;
5257;SDS011;2651;51.594;9.928;2022-12-07T01:44:23;15.82;;;10.10;;
5257;SDS011;2651;51.594;9.928;2022-12-07T01:45:36;15.70;;;10.90;;
5257;SDS011;2651;51.594;9.928;2022-12-07T01:46:41;13.30;;;9.75;;
5257;SDS011;2651;51.594;9.928;2022-12-07T01:47:48;14.35;;;10.45;;
5257;SDS011;2651;51.594;9.928;2022-12-07T01:48:54;14.45;;;10.20;;
5257;SDS011;2651;51.594;9.928;2022-12-07T01:49:56;16.17;;;10.73;;
5257;SDS011;2651;51.594;9.928;2022-12-07T01:51:00;14.20;;;10.57;;
5257;SDS011;2651;51.594;9.928;2022-12-07T01:53:19;13.73;;;9.93;;
5257;SDS011;2651;51.594;9.928;2022-12-07T01:54:25;13.55;;;9.18;;
5257;SDS011;2651;51.594;9.928;2022-12-07T01:55:27;16.98;;;10.30;;
5257;SDS011;2651;51.594;9.928;2022-12-07T01:56:30;13.07;;;9.82;;
5257;SDS011;2651;51.594;9.928;2022-12-07T01:57:33;14.85;;;10.40;;
5257;SDS011;2651;51.594;9.928;2022-12-07T01:58:37;15.38;;;10.05;;
5257;SDS011;2651;51.594;9.928;2022-12-07T01:59:39;13.30;;;9.50;;
5257;SDS011;2651;51.594;9.928;2022-12-07T02:00:42;15.90;;;11.20;;
5257;SDS011;2651;51.594;9.928;2022-12-07T02:01:44;14.70;;;10.05;;
5257;SDS011;2651;51.594;9.928;2022-12-07T02:04:01;14.05;;;9.82;;
5257;SDS011;2651;51.594;9.928;2022-12-07T02:05:03;16.83;;;10.45;;
5257;SDS011;2651;51.594;9.928;2022-12-07T02:06:07;11.15;;;8.95;;
5257;SDS011;2651;51.594;9.928;2022-12-07T02:07:12;13.25;;;9.50;;
5257;SDS011;2651;51.594;9.928;2022-12-07T02:08:15;17.50;;;9.73;;
5257;SDS011;2651;51.594;9.928;2022-12-07T02:09:18;14.07;;;9.30;;
5257;SDS011;2651;51.594;9.928;2022-12-07T02:11:22;15.05;;;10.15;;
5257;SDS011;2651;51.594;9.928;2022-12-07T02:12:24;15.48;;;10.15;;
5257;SDS011;2651;51.594;9.928;2022-12-07T02:13:27;12.98;;;9.50;;
5257;SDS011;2651;51.594;9.928;2022-12-07T02:14:32;11.57;;;9.48;;
5257;SDS011;2651;51.594;9.928;2022-12-07T02:17:07;14.85;;;9.48;;
5257;SDS011;2651;51.594;9.928;2022-12-07T02:21:11;13.63;;;9.57;;
5257;SDS011;2651;51.594;9.928;2022-12-07T02:25:36;15.23;;;11.25;;
5257;SDS011;2651;51.594;9.928;2022-12-07T02:28:33;15.38;;;11.20;;
5257;SDS011;2651;51.594;9.928;2022-12-07T02:31:12;13.55;;;10.95;;
5257;SDS011;2651;51.594;9.928;2022-12-07T02:32:25;12.27;;;8.38;;
5257;SDS011;2651;51.594;9.928;2022-12-07T02:33:41;13.40;;;9.18;;
5257;SDS011;2651;51.594;9.928;2022-12-07T02:36:43;13.85;;;10.25;;
5257;SDS011;2651;51.594;9.928;2022-12-07T02:40:20;13.32;;;8.82;;
5257;SDS011;2651;51.594;9.928;2022-12-07T02:42:43;11.85;;;9.63;;
5257;SDS011;2651;51.594;9.928;2022-12-07T02:43:53;13.05;;;9.48;;
5257;SDS011;2651;51.594;9.928;2022-12-07T02:44:57;15.80;;;9.65;;
5257;SDS011;2651;51.594;9.928;2022-12-07T02:46:04;12.73;;;8.73;;
5257;SDS011;2651;51.594;9.928;2022-12-07T02:47:09;14.13;;;10.50;;
5257;SDS011;2651;51.594;9.928;2022-12-07T02:48:14;12.68;;;9.73;;
5257;SDS011;2651;51.594;9.928;2022-12-07T02:49:19;14.30;;;9.75;;
5257;SDS011;2651;51.594;9.928;2022-12-07T02:50:24;14.55;;;10.20;;
5257;SDS011;2651;51.594;9.928;2022-12-07T02:51:25;12.70;;;9.65;;
5257;SDS011;2651;51.594;9.928;2022-12-07T02:52:30;13.15;;;9.77;;
5257;SDS011;2651;51.594;9.928;2022-12-07T02:53:36;14.45;;;10.05;;
5257;SDS011;2651;51.594;9.928;2022-12-07T02:54:39;12.35;;;10.00;;
5257;SDS011;2651;51.594;9.928;2022-12-07T02:55:41;16.13;;;10.55;;
5257;SDS011;2651;51.594;9.928;2022-12-07T02:57:57;13.65;;;10.25;;
5257;SDS011;2651;51.594;9.928;2022-12-07T02:59:34;18.63;;;10.05;;
5257;SDS011;2651;51.594;9.928;2022-12-07T03:00:54;16.98;;;10.82;;
5257;SDS011;2651;51.594;9.928;2022-12-07T03:03:16;13.63;;;10.35;;
5257;SDS011;2651;51.594;9.928;2022-12-07T03:04:27;14.25;;;10.55;;
5257;SDS011;2651;51.594;9.928;2022-12-07T03:07:11;15.63;;;10.25;;
5257;SDS011;2651;51.594;9.928;2022-12-07T03:10:42;15.18;;;11.40;;
5257;SDS011;2651;51.594;9.928;2022-12-07T03:12:16;15.02;;;11.10;;
5257;SDS011;2651;51.594;9.928;2022-12-07T03:14:31;19.60;;;10.32;;
5257;SDS011;2651;51.594;9.928;2022-12-07T03:17:09;16.35;;;10.48;;
5257;SDS011;2651;51.594;9.928;2022-12-07T03:18:18;13.25;;;10.00;;
5257;SDS011;2651;51.594;9.928;2022-12-07T03:19:23;16.27;;;11.05;;
5257;SDS011;2651;51.594;9.928;2022-12-07T03:20:28;17.17;;;10.95;;
5257;SDS011;2651;51.594;9.928;2022-12-07T03:21:35;16.40;;;11.38;;
5257;SDS011;2651;51.594;9.928;2022-12-07T03:22:40;16.73;;;11.57;;
5257;SDS011;2651;51.594;9.928;2022-12-07T03:23:44;15.93;;;10.52;;
5257;SDS011;2651;51.594;9.928;2022-12-07T03:24:54;22.23;;;10.85;;
5257;SDS011;2651;51.594;9.928;2022-12-07T03:26:02;19.30;;;11.77;;
5257;SDS011;2651;51.594;9.928;2022-12-07T03:27:06;16.83;;;11.38;;
5257;SDS011;2651;51.594;9.928;2022-12-07T03:28:22;19.23;;;11.82;;
5257;SDS011;2651;51.594;9.928;2022-12-07T03:29:29;18.45;;;11.95;;
5257;SDS011;2651;51.594;9.928;2022-12-07T03:30:52;19.08;;;10.95;;
5257;SDS011;2651;51.594;9.928;2022-12-07T03:32:03;16.13;;;11.50;;
5257;SDS011;2651;51.594;9.928;2022-12-07T03:35:03;19.52;;;11.85;;
5257;SDS011;2651;51.594;9.928;2022-12-07T03:36:00;16.50;;;10.68;;
5257;SDS011;2651;51.594;9.928;2022-12-07T03:37:08;21.48;;;11.63;;
5257;SDS011;2651;51.594;9.928;2022-12-07T03:39:26;16.33;;;11.15;;
5257;SDS011;2651;51.594;9.928;2022-12-07T03:40:47;19.92;;;12.30;;
5257;SDS011;2651;51.594;9.928;2022-12-07T03:41:56;20.33;;;12.43;;
5257;SDS011;2651;51.594;9.928;2022-12-07T03:43:02;20.42;;;12.68;;
5257;SDS011;2651;51.594;9.928;2022-12-07T03:44:05;19.35;;;12.40;;
5257;SDS011;2651;51.594;9.928;2022-12-07T03:45:08;19.52;;;12.60;;
5257;SDS011;2651;51.594;9.928;2022-12-07T03:46:33;20.05;;;12.23;;
5257;SDS011;2651;51.594;9.928;2022-12-07T03:47:47;18.08;;;11.80;;
5257;SDS011;2651;51.594;9.928;2022-12-07T03:49:19;16.83;;;11.27;;
5257;SDS011;2651;51.594;9.928;2022-12-07T03:50:59;22.55;;;13.10;;
5257;SDS011;2651;51.594;9.928;2022-12-07T03:53:27;19.13;;;12.40;;
5257;SDS011;2651;51.594;9.928;2022-12-07T03:56:04;18.00;;;11.65;;
5257;SDS011;2651;51.594;9.928;2022-12-07T03:57:06;18.77;;;12.40;;
5257;SDS011;2651;51.594;9.928;2022-12-07T03:58:14;22.90;;;13.65;;
5257;SDS011;2651;51.594;9.928;2022-12-07T03:59:18;21.15;;;13.38;;
5257;SDS011;2651;51.594;9.928;2022-12-07T04:00:21;21.33;;;12.90;;
5257;SDS011;2651;51.594;9.928;2022-12-07T04:01:23;20.25;;;12.80;;
5257;SDS011;2651;51.594;9.928;2022-12-07T04:02:26;20.42;;;12.95;;
5257;SDS011;2651;51.594;9.928;2022-12-07T04:03:29;21.25;;;12.57;;
5257;SDS011;2651;51.594;9.928;2022-12-07T04:04:31;27.08;;;14.10;;
5257;SDS011;2651;51.594;9.928;2022-12-07T04:05:34;22.73;;;13.73;;
5257;SDS011;2651;51.594;9.928;2022-12-07T04:06:36;23.50;;;13.85;;
5257;SDS011;2651;51.594;9.928;2022-12-07T04:07:38;23.92;;;13.65;;
5257;SDS011;2651;51.594;9.928;2022-12-07T04:08:40;23.83;;;14.65;;
5257;SDS011;2651;51.594;9.928;2022-12-07T04:09:41;23.00;;;13.88;;
5257;SDS011;2651;51.594;9.928;2022-12-07T04:10:43;20.65;;;13.40;;
5257;SDS011;2651;51.594;9.928;2022-12-07T04:11:44;20.17;;;13.68;;
5257;SDS011;2651;51.594;9.928;2022-12-07T04:12:46;27.58;;;15.00;;
5257;SDS011;2651;51.594;9.928;2022-12-07T04:13:48;24.67;;;14.70;;
5257;SDS011;2651;51.594;9.928;2022-12-07T04:15:08;26.90;;;15.93;;
5257;SDS011;2651;51.594;9.928;2022-12-07T04:16:10;24.63;;;14.40;;
5257;SDS011;2651;51.594;9.928;2022-12-07T04:17:12;26.65;;;15.18;;
5257;SDS011;2651;51.594;9.928;2022-12-07T04:18:14;22.88;;;13.70;;
5257;SDS011;2651;51.594;9.928;2022-12-07T04:19:16;23.23;;;13.70;;
5257;SDS011;2651;51.594;9.928;2022-12-07T04:20:19;27.55;;;14.25;;
5257;SDS011;2651;51.594;9.928;2022-12-07T04:21:21;22.98;;;14.45;;
5257;SDS011;2651;51.594;9.928;2022-12-07T04:22:23;25.45;;;15.80;;
5257;SDS011;2651;51.594;9.928;2022-12-07T04:23:24;24.02;;;15.27;;
5257;SDS011;2651;51.594;9.928;2022-12-07T04:24:26;22.45;;;13.90;;
5257;SDS011;2651;51.594;9.928;2022-12-07T04:25:28;26.77;;;15.35;;
5257;SDS011;2651;51.594;9.928;2022-12-07T04:26:29;23.63;;;15.10;;
5257;SDS011;2651;51.594;9.928;2022-12-07T04:27:31;27.05;;;15.90;;
5257;SDS011;2651;51.594;9.928;2022-12-07T04:28:33;30.60;;;15.50;;
5257;SDS011;2651;51.594;9.928;2022-12-07T04:29:34;29.35;;;15.23;;
5257;SDS011;2651;51.594;9.928;2022-12-07T04:30:36;22.02;;;13.60;;
5257;SDS011;2651;51.594;9.928;2022-12-07T04:31:38;25.65;;;15.20;;
5257;SDS011;2651;51.594;9.928;2022-12-07T04:32:40;27.42;;;15.90;;
5257;SDS011;2651;51.594;9.928;2022-12-07T04:33:41;28.88;;;15.73;;
5257;SDS011;2651;51.594;9.928;2022-12-07T04:34:43;25.95;;;14.27;;
5257;SDS011;2651;51.594;9.928;2022-12-07T04:35:45;26.35;;;16.50;;
5257;SDS011;2651;51.594;9.928;2022-12-07T04:36:46;19.35;;;12.10;;
5257;SDS011;2651;51.594;9.928;2022-12-07T04:37:49;30.02;;;16.55;;
5257;SDS011;2651;51.594;9.928;2022-12-07T04:38:52;26.85;;;15.30;;
5257;SDS011;2651;51.594;9.928;2022-12-07T04:39:55;25.55;;;15.30;;
5257;SDS011;2651;51.594;9.928;2022-12-07T04:40:57;41.85;;;15.35;;
5257;SDS011;2651;51.594;9.928;2022-12-07T04:41:59;28.00;;;16.88;;
5257;SDS011;2651;51.594;9.928;2022-12-07T04:43:02;27.95;;;15.70;;
5257;SDS011;2651;51.594;9.928;2022-12-07T04:44:03;26.30;;;14.98;;
5257;SDS011;2651;51.594;9.928;2022-12-07T04:45:08;26.80;;;15.13;;
5257;SDS011;2651;51.594;9.928;2022-12-07T04:46:10;24.15;;;14.95;;
5257;SDS011;2651;51.594;9.928;2022-12-07T04:47:12;27.38;;;16.05;;
5257;SDS011;2651;51.594;9.928;2022-12-07T04:48:14;32.47;;;15.80;;
5257;SDS011;2651;51.594;9.928;2022-12-07T04:49:16;32.72;;;15.90;;
5257;SDS011;2651;51.594;9.928;2022-12-07T04:50:18;36.08;;;15.93;;
5257;SDS011;2651;51.594;9.928;2022-12-07T04:51:21;26.17;;;15.82;;
5257;SDS011;2651;51.594;9.928;2022-12-07T04:52:28;26.45;;;15.57;;
5257;SDS011;2651;51.594;9.928;2022-12-07T04:53:29;27.08;;;15.20;;
5257;SDS011;2651;51.594;9.928;2022-12-07T04:54:31;26.02;;;15.07;;
5257;SDS011;2651;51.594;9.928;2022-12-07T04:55:32;22.05;;;14.23;;
5257;SDS011;2651;51.594;9.928;2022-12-07T04:56:34;30.33;;;16.60;;
5257;SDS011;2651;51.594;9.928;2022-12-07T04:57:36;23.77;;;14.98;;
5257;SDS011;2651;51.594;9.928;2022-12-07T04:58:37;25.67;;;15.57;;
5257;SDS011;2651;51.594;9.928;2022-12-07T04:59:39;24.13;;;15.20;;
5257;SDS011;2651;51.594;9.928;2022-12-07T05:00:45;24.02;;;15.52;;
5257;SDS011;2651;51.594;9.928;2022-12-07T05:01:48;31.20;;;16.10;;
5257;SDS011;2651;51.594;9.928;2022-12-07T05:02:49;32.05;;;16.90;;
5257;SDS011;2651;51.594;9.928;2022-12-07T05:03:51;26.83;;;16.00;;
5257;SDS011;2651;51.594;9.928;2022-12-07T05:04:53;25.60;;;15.20;;
5257;SDS011;2651;51.594;9.928;2022-12-07T05:05:55;25.00;;;14.77;;
5257;SDS011;2651;51.594;9.928;2022-12-07T05:06:56;27.35;;;15.75;;
5257;SDS011;2651;51.594;9.928;2022-12-07T05:07:58;26.92;;;14.63;;
5257;SDS011;2651;51.594;9.928;2022-12-07T05:09:00;34.78;;;14.95;;
5257;SDS011;2651;51.594;9.928;2022-12-07T05:10:02;29.05;;;15.27;;
5257;SDS011;2651;51.594;9.928;2022-12-07T05:11:05;24.40;;;15.13;;
5257;SDS011;2651;51.594;9.928;2022-12-07T05:12:07;25.20;;;14.40;;
5257;SDS011;2651;51.594;9.928;2022-12-07T05:13:09;23.95;;;15.52;;
5257;SDS011;2651;51.594;9.928;2022-12-07T05:14:12;25.10;;;14.05;;
5257;SDS011;2651;51.594;9.928;2022-12-07T05:15:18;21.42;;;12.93;;
5257;SDS011;2651;51.594;9.928;2022-12-07T05:16:19;32.15;;;15.45;;
5257;SDS011;2651;51.594;9.928;2022-12-07T05:17:21;26.25;;;14.65;;
5257;SDS011;2651;51.594;9.928;2022-12-07T05:18:23;23.38;;;13.88;;
5257;SDS011;2651;51.594;9.928;2022-12-07T05:19:25;21.10;;;12.70;;
5257;SDS011;2651;51.594;9.928;2022-12-07T05:20:27;19.35;;;12.38;;
5257;SDS011;2651;51.594;9.928;2022-12-07T05:21:29;18.73;;;12.45;;
5257;SDS011;2651;51.594;9.928;2022-12-07T05:22:31;23.77;;;13.73;;
5257;SDS011;2651;51.594;9.928;2022-12-07T05:23:32;20.90;;;12.80;;
5257;SDS011;2651;51.594;9.928;2022-12-07T05:24:34;25.80;;;13.25;;
5257;SDS011;2651;51.594;9.928;2022-12-07T05:25:35;24.38;;;12.43;;
5257;SDS011;2651;51.594;9.928;2022-12-07T05:26:37;19.25;;;12.63;;
5257;SDS011;2651;51.594;9.928;2022-12-07T05:27:39;24.17;;;13.57;;
5257;SDS011;2651;51.594;9.928;2022-12-07T05:28:40;19.40;;;12.20;;
5257;SDS011;2651;51.594;9.928;2022-12-07T05:29:42;24.38;;;13.35;;
5257;SDS011;2651;51.594;9.928;2022-12-07T05:30:43;20.58;;;11.98;;
5257;SDS011;2651;51.594;9.928;2022-12-07T05:31:45;22.02;;;11.82;;
5257;SDS011;2651;51.594;9.928;2022-12-07T05:32:47;21.08;;;12.40;;
5257;SDS011;2651;51.594;9.928;2022-12-07T05:33:48;20.80;;;12.48;;
5257;SDS011;2651;51.594;9.928;2022-12-07T05:34:50;18.98;;;12.02;;
5257;SDS011;2651;51.594;9.928;2022-12-07T05:35:52;19.63;;;11.75;;
5257;SDS011;2651;51.594;9.928;2022-12-07T05:36:53;19.85;;;11.38;;
5257;SDS011;2651;51.594;9.928;2022-12-07T05:37:55;20.05;;;13.05;;
5257;SDS011;2651;51.594;9.928;2022-12-07T05:38:58;18.80;;;12.27;;
5257;SDS011;2651;51.594;9.928;2022-12-07T05:40:00;24.15;;;12.45;;
5257;SDS011;2651;51.594;9.928;2022-12-07T05:41:02;22.27;;;12.02;;
5257;SDS011;2651;51.594;9.928;2022-12-07T05:42:06;21.88;;;11.57;;
5257;SDS011;2651;51.594;9.928;2022-12-07T05:43:13;21.80;;;12.50;;
5257;SDS011;2651;51.594;9.928;2022-12-07T05:44:15;20.48;;;13.00;;
5257;SDS011;2651;51.594;9.928;2022-12-07T05:45:17;23.45;;;12.52;;
5257;SDS011;2651;51.594;9.928;2022-12-07T05:46:18;22.35;;;12.70;;
5257;SDS011;2651;51.594;9.928;2022-12-07T05:47:20;23.25;;;12.80;;
5257;SDS011;2651;51.594;9.928;2022-12-07T05:48:22;19.45;;;12.80;;
5257;SDS011;2651;51.594;9.928;2022-12-07T05:49:23;17.25;;;11.20;;
5257;SDS011;2651;51.594;9.928;2022-12-07T05:50:25;18.80;;;11.98;;
5257;SDS011;2651;51.594;9.928;2022-12-07T05:51:27;17.92;;;11.82;;
5257;SDS011;2651;51.594;9.928;2022-12-07T05:52:28;23.05;;;11.98;;
5257;SDS011;2651;51.594;9.928;2022-12-07T05:53:30;22.15;;;12.30;;
5257;SDS011;2651;51.594;9.928;2022-12-07T05:54:32;21.58;;;12.07;;
5257;SDS011;2651;51.594;9.928;2022-12-07T05:55:34;20.23;;;12.40;;
5257;SDS011;2651;51.594;9.928;2022-12-07T05:56:36;22.63;;;12.27;;
5257;SDS011;2651;51.594;9.928;2022-12-07T05:57:37;22.60;;;12.10;;
5257;SDS011;2651;51.594;9.928;2022-12-07T05:58:39;19.80;;;11.95;;
5257;SDS011;2651;51.594;9.928;2022-12-07T05:59:59;19.70;;;11.60;;
5257;SDS011;2651;51.594;9.928;2022-12-07T06:01:01;16.00;;;10.75;;
5257;SDS011;2651;51.594;9.928;2022-12-07T06:02:04;22.77;;;11.88;;
5257;SDS011;2651;51.594;9.928;2022-12-07T06:03:08;21.25;;;11.30;;
5257;SDS011;2651;51.594;9.928;2022-12-07T06:04:09;19.70;;;12.10;;
5257;SDS011;2651;51.594;9.928;2022-12-07T06:05:11;14.85;;;10.55;;
5257;SDS011;2651;51.594;9.928;2022-12-07T06:06:13;18.23;;;10.85;;
5257;SDS011;2651;51.594;9.928;2022-12-07T06:07:14;15.85;;;10.48;;
5257;SDS011;2651;51.594;9.928;2022-12-07T06:09:21;20.85;;;11.45;;
5257;SDS011;2651;51.594;9.928;2022-12-07T06:10:23;19.63;;;10.57;;
5257;SDS011;2651;51.594;9.928;2022-12-07T06:11:25;15.07;;;10.50;;
5257;SDS011;2651;51.594;9.928;2022-12-07T06:12:59;22.95;;;10.35;;
5257;SDS011;2651;51.594;9.928;2022-12-07T06:14:00;19.42;;;9.82;;
5257;SDS011;2651;51.594;9.928;2022-12-07T06:15:02;23.77;;;10.63;;
5257;SDS011;2651;51.594;9.928;2022-12-07T06:16:04;16.25;;;9.82;;
5257;SDS011;2651;51.594;9.928;2022-12-07T06:17:06;15.13;;;10.20;;
5257;SDS011;2651;51.594;9.928;2022-12-07T06:18:08;16.10;;;10.75;;
5257;SDS011;2651;51.594;9.928;2022-12-07T06:19:10;18.58;;;9.90;;
5257;SDS011;2651;51.594;9.928;2022-12-07T06:20:11;16.15;;;10.02;;
5257;SDS011;2651;51.594;9.928;2022-12-07T06:21:13;23.33;;;11.55;;
5257;SDS011;2651;51.594;9.928;2022-12-07T06:22:15;16.00;;;9.38;;
5257;SDS011;2651;51.594;9.928;2022-12-07T06:23:17;23.65;;;11.10;;
5257;SDS011;2651;51.594;9.928;2022-12-07T06:24:19;15.10;;;9.07;;
5257;SDS011;2651;51.594;9.928;2022-12-07T06:25:20;16.33;;;9.15;;
5257;SDS011;2651;51.594;9.928;2022-12-07T06:26:22;17.95;;;10.32;;
5257;SDS011;2651;51.594;9.928;2022-12-07T06:27:24;21.77;;;9.75;;
5257;SDS011;2651;51.594;9.928;2022-12-07T06:28:25;16.00;;;8.82;;
5257;SDS011;2651;51.594;9.928;2022-12-07T06:29:27;19.27;;;9.45;;
5257;SDS011;2651;51.594;9.928;2022-12-07T06:30:29;13.70;;;8.23;;
5257;SDS011;2651;51.594;9.928;2022-12-07T06:31:30;13.70;;;9.20;;
5257;SDS011;2651;51.594;9.928;2022-12-07T06:32:33;11.95;;;7.95;;
5257;SDS011;2651;51.594;9.928;2022-12-07T06:33:34;10.52;;;6.10;;
5257;SDS011;2651;51.594;9.928;2022-12-07T06:34:36;12.95;;;8.63;;
5257;SDS011;2651;51.594;9.928;2022-12-07T06:35:38;15.65;;;8.63;;
5257;SDS011;2651;51.594;9.928;2022-12-07T06:36:40;13.98;;;8.27;;
5257;SDS011;2651;51.594;9.928;2022-12-07T06:37:42;19.23;;;8.45;;
5257;SDS011;2651;51.594;9.928;2022-12-07T06:38:43;15.88;;;8.32;;
5257;SDS011;2651;51.594;9.928;2022-12-07T06:39:45;14.55;;;8.48;;
5257;SDS011;2651;51.594;9.928;2022-12-07T06:40:46;17.85;;;8.98;;
5257;SDS011;2651;51.594;9.928;2022-12-07T06:41:49;11.00;;;7.65;;
5257;SDS011;2651;51.594;9.928;2022-12-07T06:42:52;11.82;;;8.27;;
5257;SDS011;2651;51.594;9.928;2022-12-07T06:43:54;15.35;;;8.25;;
5257;SDS011;2651;51.594;9.928;2022-12-07T06:44:56;14.10;;;8.20;;
5257;SDS011;2651;51.594;9.928;2022-12-07T06:45:58;19.13;;;7.65;;
5257;SDS011;2651;51.594;9.928;2022-12-07T06:47:00;15.07;;;7.80;;
5257;SDS011;2651;51.594;9.928;2022-12-07T06:48:21;14.20;;;8.00;;
5257;SDS011;2651;51.594;9.928;2022-12-07T06:49:23;12.13;;;8.27;;
5257;SDS011;2651;51.594;9.928;2022-12-07T06:50:25;10.30;;;8.13;;
5257;SDS011;2651;51.594;9.928;2022-12-07T06:51:27;12.65;;;8.60;;
5257;SDS011;2651;51.594;9.928;2022-12-07T06:52:28;17.95;;;8.10;;
5257;SDS011;2651;51.594;9.928;2022-12-07T06:53:31;14.88;;;8.77;;
5257;SDS011;2651;51.594;9.928;2022-12-07T06:54:33;14.13;;;7.55;;
5257;SDS011;2651;51.594;9.928;2022-12-07T06:55:34;17.27;;;8.15;;
5257;SDS011;2651;51.594;9.928;2022-12-07T06:56:36;19.40;;;9.05;;
5257;SDS011;2651;51.594;9.928;2022-12-07T06:57:38;14.73;;;8.80;;
5257;SDS011;2651;51.594;9.928;2022-12-07T06:58:40;15.85;;;8.15;;
5257;SDS011;2651;51.594;9.928;2022-12-07T06:59:42;11.70;;;7.30;;
5257;SDS011;2651;51.594;9.928;2022-12-07T07:00:44;12.93;;;8.60;;
5257;SDS011;2651;51.594;9.928;2022-12-07T07:01:46;20.23;;;7.82;;
5257;SDS011;2651;51.594;9.928;2022-12-07T07:02:48;13.70;;;7.95;;